sensor_id;sensor_type;location;lat;lon;timestamp;pressure;altitude;pressure_sealevel;temperature;humidity
25638;BME280;13496;51.040;13.680;2022-11-14T00:04:38;100377.09;;;17.53;54.82
25638;BME280;13496;51.040;13.680;2022-11-14T00:09:59;100373.66;;;17.52;54.92
25638;BME280;13496;51.040;13.680;2022-11-14T00:15:19;100372.19;;;17.50;55.05
25638;BME280;13496;51.040;13.680;2022-11-14T00:20:40;100359.06;;;17.50;54.83
25638;BME280;13496;51.040;13.680;2022-11-14T00:26:00;100360.72;;;17.51;54.95
25638;BME280;13496;51.040;13.680;2022-11-14T00:31:21;100366.28;;;17.48;54.86
25638;BME280;13496;51.040;13.680;2022-11-14T00:36:42;100354.50;;;17.44;55.02
25638;BME280;13496;51.040;13.680;2022-11-14T00:42:02;100363.00;;;17.46;55.09
25638;BME280;13496;51.040;13.680;2022-11-14T00:47:23;100350.88;;;17.45;54.63
25638;BME280;13496;51.040;13.680;2022-11-14T00:52:43;100353.50;;;17.45;54.81
25638;BME280;13496;51.040;13.680;2022-11-14T00:58:04;100343.69;;;17.47;54.61
25638;BME280;13496;51.040;13.680;2022-11-14T01:03:24;100335.13;;;17.45;55.06
25638;BME280;13496;51.040;13.680;2022-11-14T01:08:45;100335.47;;;17.41;54.81
25638;BME280;13496;51.040;13.680;2022-11-14T01:14:06;100334.47;;;17.42;54.83
25638;BME280;13496;51.040;13.680;2022-11-14T01:19:27;100323.34;;;17.40;54.87
25638;BME280;13496;51.040;13.680;2022-11-14T01:24:47;100322.53;;;17.40;54.81
25638;BME280;13496;51.040;13.680;2022-11-14T01:30:08;100305.13;;;17.39;54.85
25638;BME280;13496;51.040;13.680;2022-11-14T01:35:29;100291.38;;;17.37;54.69
25638;BME280;13496;51.040;13.680;2022-11-14T01:40:50;100294.81;;;17.37;54.87
25638;BME280;13496;51.040;13.680;2022-11-14T01:46:27;100283.69;;;17.35;54.99
25638;BME280;13496;51.040;13.680;2022-11-14T01:51:59;100274.16;;;17.34;54.79
25638;BME280;13496;51.040;13.680;2022-11-14T01:57:33;100265.66;;;17.32;54.88
25638;BME280;13496;51.040;13.680;2022-11-14T02:02:56;100261.38;;;17.31;54.85
25638;BME280;13496;51.040;13.680;2022-11-14T02:08:17;100240.41;;;17.31;54.85
25638;BME280;13496;51.040;13.680;2022-11-14T02:13:38;100226.31;;;17.32;54.69
25638;BME280;13496;51.040;13.680;2022-11-14T02:18:59;100219.59;;;17.30;54.69
25638;BME280;13496;51.040;13.680;2022-11-14T02:24:19;100216.16;;;17.29;54.81
25638;BME280;13496;51.040;13.680;2022-11-14T02:29:40;100211.91;;;17.28;54.69
25638;BME280;13496;51.040;13.680;2022-11-14T02:35:00;100198.81;;;17.28;54.71
25638;BME280;13496;51.040;13.680;2022-11-14T02:40:20;100195.34;;;17.28;55.00
25638;BME280;13496;51.040;13.680;2022-11-14T02:45:41;100191.41;;;17.24;55.18
25638;BME280;13496;51.040;13.680;2022-11-14T02:51:01;100181.41;;;17.27;54.91
25638;BME280;13496;51.040;13.680;2022-11-14T02:56:22;100184.22;;;17.26;54.93
25638;BME280;13496;51.040;13.680;2022-11-14T03:01:42;100177.16;;;17.26;54.85
25638;BME280;13496;51.040;13.680;2022-11-14T03:07:02;100172.09;;;17.25;54.99
25638;BME280;13496;51.040;13.680;2022-11-14T03:12:23;100166.84;;;17.25;54.96
25638;BME280;13496;51.040;13.680;2022-11-14T03:17:43;100151.59;;;17.20;54.82
25638;BME280;13496;51.040;13.680;2022-11-14T03:23:04;100156.84;;;17.20;54.79
25638;BME280;13496;51.040;13.680;2022-11-14T03:28:24;100160.47;;;17.19;54.80
25638;BME280;13496;51.040;13.680;2022-11-14T03:33:45;100154.59;;;17.17;54.49
25638;BME280;13496;51.040;13.680;2022-11-14T03:39:06;100157.34;;;17.15;54.43
25638;BME280;13496;51.040;13.680;2022-11-14T03:44:26;100144.44;;;17.14;54.42
25638;BME280;13496;51.040;13.680;2022-11-14T03:49:46;100136.56;;;17.14;54.07
25638;BME280;13496;51.040;13.680;2022-11-14T03:55:07;100129.03;;;17.11;54.33
25638;BME280;13496;51.040;13.680;2022-11-14T04:00:27;100124.59;;;17.11;54.16
25638;BME280;13496;51.040;13.680;2022-11-14T04:05:48;100115.25;;;17.09;54.18
25638;BME280;13496;51.040;13.680;2022-11-14T04:11:08;100110.00;;;17.09;54.24
25638;BME280;13496;51.040;13.680;2022-11-14T04:16:28;100101.66;;;17.05;54.26
25638;BME280;13496;51.040;13.680;2022-11-14T04:21:48;100095.63;;;17.05;53.96
25638;BME280;13496;51.040;13.680;2022-11-14T04:27:09;100086.78;;;17.06;54.04
25638;BME280;13496;51.040;13.680;2022-11-14T04:32:30;100082.84;;;17.02;54.25
25638;BME280;13496;51.040;13.680;2022-11-14T04:37:50;100070.72;;;17.01;54.06
25638;BME280;13496;51.040;13.680;2022-11-14T04:43:11;100059.63;;;16.99;53.86
25638;BME280;13496;51.040;13.680;2022-11-14T04:48:31;100061.75;;;16.95;53.84
25638;BME280;13496;51.040;13.680;2022-11-14T04:53:51;100055.69;;;16.95;53.70
25638;BME280;13496;51.040;13.680;2022-11-14T04:59:12;100059.75;;;16.97;53.70
25638;BME280;13496;51.040;13.680;2022-11-14T05:04:32;100052.09;;;16.96;53.57
25638;BME280;13496;51.040;13.680;2022-11-14T05:09:53;100058.47;;;16.93;53.30
25638;BME280;13496;51.040;13.680;2022-11-14T05:15:13;100061.28;;;16.91;53.47
25638;BME280;13496;51.040;13.680;2022-11-14T05:20:34;100051.13;;;16.88;53.43
25638;BME280;13496;51.040;13.680;2022-11-14T05:26:06;100060.78;;;16.88;53.53
25638;BME280;13496;51.040;13.680;2022-11-14T05:31:27;100054.75;;;16.87;53.40
25638;BME280;13496;51.040;13.680;2022-11-14T05:36:48;100055.06;;;16.84;53.41
25638;BME280;13496;51.040;13.680;2022-11-14T05:42:08;100057.69;;;16.84;53.21
25638;BME280;13496;51.040;13.680;2022-11-14T05:47:28;100061.94;;;16.85;53.39
25638;BME280;13496;51.040;13.680;2022-11-14T05:52:49;100061.28;;;16.83;53.12
25638;BME280;13496;51.040;13.680;2022-11-14T05:58:09;100069.13;;;16.83;53.40
25638;BME280;13496;51.040;13.680;2022-11-14T06:03:35;100074.38;;;16.83;53.31
25638;BME280;13496;51.040;13.680;2022-11-14T06:08:55;100084.22;;;16.81;53.17
25638;BME280;13496;51.040;13.680;2022-11-14T06:14:15;100087.66;;;16.82;53.21
25638;BME280;13496;51.040;13.680;2022-11-14T06:19:36;100092.09;;;16.81;53.33
25638;BME280;13496;51.040;13.680;2022-11-14T06:24:56;100089.47;;;16.81;53.10
25638;BME280;13496;51.040;13.680;2022-11-14T06:30:17;100102.41;;;16.83;53.05
25638;BME280;13496;51.040;13.680;2022-11-14T06:35:37;100103.72;;;16.79;53.02
25638;BME280;13496;51.040;13.680;2022-11-14T06:46:31;100099.66;;;16.76;52.76
25638;BME280;13496;51.040;13.680;2022-11-14T06:51:52;100098.66;;;16.77;52.65
25638;BME280;13496;51.040;13.680;2022-11-14T06:57:13;100111.75;;;16.77;52.36
25638;BME280;13496;51.040;13.680;2022-11-14T07:02:33;100106.34;;;16.79;52.21
25638;BME280;13496;51.040;13.680;2022-11-14T07:07:56;100103.22;;;16.75;52.39
25638;BME280;13496;51.040;13.680;2022-11-14T07:13:17;100108.97;;;16.79;51.92
25638;BME280;13496;51.040;13.680;2022-11-14T07:18:37;100106.66;;;16.76;52.05
25638;BME280;13496;51.040;13.680;2022-11-14T07:23:58;100109.91;;;16.86;51.57
25638;BME280;13496;51.040;13.680;2022-11-14T07:29:18;100106.94;;;16.97;51.37
25638;BME280;13496;51.040;13.680;2022-11-14T07:34:39;100116.59;;;17.05;50.98
25638;BME280;13496;51.040;13.680;2022-11-14T07:39:59;100108.19;;;17.17;50.89
25638;BME280;13496;51.040;13.680;2022-11-14T07:45:20;100113.88;;;17.29;50.60
25638;BME280;13496;51.040;13.680;2022-11-14T07:50:40;100110.53;;;17.44;50.43
25638;BME280;13496;51.040;13.680;2022-11-14T07:56:03;100105.03;;;17.61;49.85
25638;BME280;13496;51.040;13.680;2022-11-14T08:01:24;100108.59;;;17.77;49.62
25638;BME280;13496;51.040;13.680;2022-11-14T08:06:44;100087.66;;;17.92;49.12
25638;BME280;13496;51.040;13.680;2022-11-14T08:12:05;100089.22;;;18.01;49.01
25638;BME280;13496;51.040;13.680;2022-11-14T08:17:25;100103.78;;;18.26;48.80
25638;BME280;13496;51.040;13.680;2022-11-14T08:22:45;100110.31;;;18.30;48.60
25638;BME280;13496;51.040;13.680;2022-11-14T08:28:05;100119.63;;;18.18;49.04
25638;BME280;13496;51.040;13.680;2022-11-14T08:33:26;100127.25;;;18.05;49.31
25638;BME280;13496;51.040;13.680;2022-11-14T08:38:46;100121.31;;;18.11;49.18
25638;BME280;13496;51.040;13.680;2022-11-14T08:44:07;100121.06;;;17.98;49.60
25638;BME280;13496;51.040;13.680;2022-11-14T08:49:27;100127.25;;;17.82;49.70
25638;BME280;13496;51.040;13.680;2022-11-14T08:54:48;100126.28;;;17.75;49.74
25638;BME280;13496;51.040;13.680;2022-11-14T09:00:09;100116.44;;;17.69;49.86
25638;BME280;13496;51.040;13.680;2022-11-14T09:05:29;100113.38;;;17.65;49.86
25638;BME280;13496;51.040;13.680;2022-11-14T09:10:50;100104.38;;;17.59;49.88
25638;BME280;13496;51.040;13.680;2022-11-14T09:16:10;100104.19;;;17.61;49.77
25638;BME280;13496;51.040;13.680;2022-11-14T09:21:31;100098.13;;;17.60;50.04
25638;BME280;13496;51.040;13.680;2022-11-14T09:26:51;100098.00;;;17.62;49.70
25638;BME280;13496;51.040;13.680;2022-11-14T09:32:12;100103.72;;;17.65;49.76
25638;BME280;13496;51.040;13.680;2022-11-14T09:37:32;100081.53;;;17.68;49.46
25638;BME280;13496;51.040;13.680;2022-11-14T09:43:10;100084.00;;;17.70;49.28
25638;BME280;13496;51.040;13.680;2022-11-14T09:48:34;100067.44;;;17.69;49.21
25638;BME280;13496;51.040;13.680;2022-11-14T09:54:24;100074.63;;;17.75;49.06
25638;BME280;13496;51.040;13.680;2022-11-14T09:59:46;100077.56;;;17.80;49.31
25638;BME280;13496;51.040;13.680;2022-11-14T10:16:17;100079.38;;;18.03;48.97
25638;BME280;13496;51.040;13.680;2022-11-14T10:27:21;100060.22;;;18.17;48.94
25638;BME280;13496;51.040;13.680;2022-11-14T10:33:19;100054.06;;;18.25;48.61
25638;BME280;13496;51.040;13.680;2022-11-14T10:38:42;100051.72;;;18.30;48.47
25638;BME280;13496;51.040;13.680;2022-11-14T10:44:12;100044.09;;;18.35;48.31
25638;BME280;13496;51.040;13.680;2022-11-14T10:49:34;100023.75;;;18.37;48.31
25638;BME280;13496;51.040;13.680;2022-11-14T10:54:58;100015.22;;;18.35;48.27
25638;BME280;13496;51.040;13.680;2022-11-14T11:00:21;100018.69;;;18.35;48.13
25638;BME280;13496;51.040;13.680;2022-11-14T11:05:50;100019.38;;;18.29;48.47
25638;BME280;13496;51.040;13.680;2022-11-14T11:11:12;100018.91;;;18.26;48.55
25638;BME280;13496;51.040;13.680;2022-11-14T11:22:36;100008.13;;;18.06;49.01
25638;BME280;13496;51.040;13.680;2022-11-14T11:28:05;100006.13;;;18.08;49.11
25638;BME280;13496;51.040;13.680;2022-11-14T11:33:29;100001.22;;;18.05;49.28
25638;BME280;13496;51.040;13.680;2022-11-14T11:38:49;100003.22;;;18.03;49.02
25638;BME280;13496;51.040;13.680;2022-11-14T11:44:11;99989.56;;;18.07;49.28
25638;BME280;13496;51.040;13.680;2022-11-14T12:00:28;99989.91;;;18.04;49.26
25638;BME280;13496;51.040;13.680;2022-11-14T12:05:57;99987.47;;;18.03;49.25
25638;BME280;13496;51.040;13.680;2022-11-14T12:11:23;99980.56;;;18.02;49.20
25638;BME280;13496;51.040;13.680;2022-11-14T12:17:01;99979.75;;;18.01;48.73
25638;BME280;13496;51.040;13.680;2022-11-14T12:33:55;99971.25;;;17.99;48.93
25638;BME280;13496;51.040;13.680;2022-11-14T12:39:29;99976.16;;;18.02;48.84
25638;BME280;13496;51.040;13.680;2022-11-14T12:44:50;99970.91;;;18.02;49.16
25638;BME280;13496;51.040;13.680;2022-11-14T12:50:38;99965.19;;;17.99;48.88
25638;BME280;13496;51.040;13.680;2022-11-14T12:56:10;99964.75;;;17.95;48.76
25638;BME280;13496;51.040;13.680;2022-11-14T13:07:36;99946.97;;;17.97;48.82
25638;BME280;13496;51.040;13.680;2022-11-14T13:13:14;99955.41;;;17.93;48.79
25638;BME280;13496;51.040;13.680;2022-11-14T13:30:17;99959.38;;;17.88;48.74
25638;BME280;13496;51.040;13.680;2022-11-14T13:35:44;99957.75;;;17.87;48.96
25638;BME280;13496;51.040;13.680;2022-11-14T13:52:25;99949.41;;;17.84;49.46
25638;BME280;13496;51.040;13.680;2022-11-14T14:15:31;99949.94;;;17.79;49.70
25638;BME280;13496;51.040;13.680;2022-11-14T14:21:05;99949.31;;;17.77;49.62
25638;BME280;13496;51.040;13.680;2022-11-14T14:27:23;99939.81;;;17.76;49.86
25638;BME280;13496;51.040;13.680;2022-11-14T14:32:36;99930.94;;;17.77;50.03
25638;BME280;13496;51.040;13.680;2022-11-14T14:37:57;99922.41;;;17.75;49.87
25638;BME280;13496;51.040;13.680;2022-11-14T14:43:32;99919.31;;;17.72;49.83
25638;BME280;13496;51.040;13.680;2022-11-14T14:48:53;99922.72;;;17.72;50.14
25638;BME280;13496;51.040;13.680;2022-11-14T14:54:25;99925.53;;;17.71;50.09
25638;BME280;13496;51.040;13.680;2022-11-14T14:59:58;99921.66;;;17.66;50.17
25638;BME280;13496;51.040;13.680;2022-11-14T15:05:26;99916.06;;;17.70;50.20
25638;BME280;13496;51.040;13.680;2022-11-14T15:10:47;99903.75;;;17.70;50.07
25638;BME280;13496;51.040;13.680;2022-11-14T15:16:08;99895.22;;;17.68;50.20
25638;BME280;13496;51.040;13.680;2022-11-14T15:21:29;99897.22;;;17.66;50.44
25638;BME280;13496;51.040;13.680;2022-11-14T15:26:50;99905.09;;;17.66;50.41
25638;BME280;13496;51.040;13.680;2022-11-14T15:32:21;99909.69;;;17.64;50.56
25638;BME280;13496;51.040;13.680;2022-11-14T15:43:46;99911.69;;;17.62;50.41
25638;BME280;13496;51.040;13.680;2022-11-14T15:49:23;99909.06;;;17.62;50.55
25638;BME280;13496;51.040;13.680;2022-11-14T15:54:45;99908.41;;;17.60;50.40
25638;BME280;13496;51.040;13.680;2022-11-14T16:00:06;99913.84;;;17.58;50.68
25638;BME280;13496;51.040;13.680;2022-11-14T16:05:28;99915.66;;;17.58;50.74
25638;BME280;13496;51.040;13.680;2022-11-14T16:10:48;99915.66;;;17.58;50.94
25638;BME280;13496;51.040;13.680;2022-11-14T16:16:09;99915.03;;;17.56;50.87
25638;BME280;13496;51.040;13.680;2022-11-14T16:21:30;99918.66;;;17.55;51.07
25638;BME280;13496;51.040;13.680;2022-11-14T16:26:50;99908.16;;;17.55;51.05
25638;BME280;13496;51.040;13.680;2022-11-14T16:32:11;99916.38;;;17.52;51.26
25638;BME280;13496;51.040;13.680;2022-11-14T16:37:31;99909.13;;;17.54;51.22
25638;BME280;13496;51.040;13.680;2022-11-14T16:42:56;99912.75;;;17.53;51.36
25638;BME280;13496;51.040;13.680;2022-11-14T16:48:17;99912.13;;;17.51;51.18
25638;BME280;13496;51.040;13.680;2022-11-14T16:53:38;99909.50;;;17.51;51.38
25638;BME280;13496;51.040;13.680;2022-11-14T16:58:58;99906.88;;;17.51;51.55
25638;BME280;13496;51.040;13.680;2022-11-14T17:04:18;99905.22;;;17.50;51.55
25638;BME280;13496;51.040;13.680;2022-11-14T17:09:39;99902.59;;;17.50;51.42
25638;BME280;13496;51.040;13.680;2022-11-14T17:14:59;99909.84;;;17.48;51.36
25638;BME280;13496;51.040;13.680;2022-11-14T17:20:20;99915.72;;;17.50;51.72
25638;BME280;13496;51.040;13.680;2022-11-14T17:25:40;99910.84;;;17.47;51.76
25638;BME280;13496;51.040;13.680;2022-11-14T17:31:07;99916.09;;;17.47;51.84
25638;BME280;13496;51.040;13.680;2022-11-14T17:36:29;99924.78;;;17.47;52.00
25638;BME280;13496;51.040;13.680;2022-11-14T17:41:49;99904.94;;;17.45;51.83
25638;BME280;13496;51.040;13.680;2022-11-14T17:47:09;99915.44;;;17.45;52.16
25638;BME280;13496;51.040;13.680;2022-11-14T17:52:30;99903.31;;;17.44;52.18
25638;BME280;13496;51.040;13.680;2022-11-14T17:57:50;99907.75;;;17.43;51.97
25638;BME280;13496;51.040;13.680;2022-11-14T18:03:10;99922.66;;;17.42;52.16
25638;BME280;13496;51.040;13.680;2022-11-14T18:08:32;99918.41;;;17.41;52.38
25638;BME280;13496;51.040;13.680;2022-11-14T18:13:53;99906.91;;;17.42;52.46
25638;BME280;13496;51.040;13.680;2022-11-14T18:19:14;99909.53;;;17.42;52.31
25638;BME280;13496;51.040;13.680;2022-11-14T18:24:34;99898.09;;;17.44;52.53
25638;BME280;13496;51.040;13.680;2022-11-14T18:29:55;99902.88;;;17.40;52.40
25638;BME280;13496;51.040;13.680;2022-11-14T18:35:15;99894.81;;;17.41;52.38
25638;BME280;13496;51.040;13.680;2022-11-14T18:40:36;99896.81;;;17.39;52.70
25638;BME280;13496;51.040;13.680;2022-11-14T18:51:29;99893.53;;;17.37;52.74
25638;BME280;13496;51.040;13.680;2022-11-14T18:56:50;99879.41;;;17.38;52.63
25638;BME280;13496;51.040;13.680;2022-11-14T19:02:10;99886.31;;;17.39;53.01
25638;BME280;13496;51.040;13.680;2022-11-14T19:07:31;99876.19;;;17.36;53.04
25638;BME280;13496;51.040;13.680;2022-11-14T19:12:51;99874.56;;;17.35;53.02
25638;BME280;13496;51.040;13.680;2022-11-14T19:18:11;99873.34;;;17.38;52.82
25638;BME280;13496;51.040;13.680;2022-11-14T19:23:32;99861.06;;;17.38;52.92
25638;BME280;13496;51.040;13.680;2022-11-14T19:28:52;99853.56;;;17.35;53.01
25638;BME280;13496;51.040;13.680;2022-11-14T19:34:13;99857.63;;;17.38;53.25
25638;BME280;13496;51.040;13.680;2022-11-14T19:39:34;99856.19;;;17.35;53.48
25638;BME280;13496;51.040;13.680;2022-11-14T19:44:54;99844.69;;;17.36;53.13
25638;BME280;13496;51.040;13.680;2022-11-14T19:50:14;99849.28;;;17.34;53.27
25638;BME280;13496;51.040;13.680;2022-11-14T19:55:34;99853.56;;;17.35;53.30
25638;BME280;13496;51.040;13.680;2022-11-14T20:01:08;99864.41;;;17.32;53.48
25638;BME280;13496;51.040;13.680;2022-11-14T20:06:32;99863.88;;;17.37;53.38
25638;BME280;13496;51.040;13.680;2022-11-14T20:11:53;99874.56;;;17.35;53.61
25638;BME280;13496;51.040;13.680;2022-11-14T20:17:13;99871.28;;;17.33;53.76
25638;BME280;13496;51.040;13.680;2022-11-14T20:22:34;99865.84;;;17.35;53.50
25638;BME280;13496;51.040;13.680;2022-11-14T20:27:54;99859.97;;;17.33;53.74
25638;BME280;13496;51.040;13.680;2022-11-14T20:33:14;99853.56;;;17.35;53.80
25638;BME280;13496;51.040;13.680;2022-11-14T20:38:35;99845.84;;;17.34;53.62
25638;BME280;13496;51.040;13.680;2022-11-14T20:43:55;99852.91;;;17.33;53.84
25638;BME280;13496;51.040;13.680;2022-11-14T20:49:15;99856.81;;;17.37;53.61
25638;BME280;13496;51.040;13.680;2022-11-14T20:54:36;99850.09;;;17.35;53.75
25638;BME280;13496;51.040;13.680;2022-11-14T20:59:56;99845.84;;;17.34;53.85
25638;BME280;13496;51.040;13.680;2022-11-14T21:05:16;99836.19;;;17.34;54.02
25638;BME280;13496;51.040;13.680;2022-11-14T21:10:42;99831.75;;;17.35;54.11
25638;BME280;13496;51.040;13.680;2022-11-14T21:16:09;99833.75;;;17.33;54.06
25638;BME280;13496;51.040;13.680;2022-11-14T21:21:33;99835.56;;;17.32;54.21
25638;BME280;13496;51.040;13.680;2022-11-14T21:26:54;99826.50;;;17.35;53.85
25638;BME280;13496;51.040;13.680;2022-11-14T21:32:14;99825.69;;;17.34;54.08
25638;BME280;13496;51.040;13.680;2022-11-14T21:37:35;99833.41;;;17.36;54.11
25638;BME280;13496;51.040;13.680;2022-11-14T21:42:55;99830.94;;;17.34;54.10
25638;BME280;13496;51.040;13.680;2022-11-14T21:48:15;99828.31;;;17.34;54.11
25638;BME280;13496;51.040;13.680;2022-11-14T21:53:36;99821.44;;;17.33;54.06
25638;BME280;13496;51.040;13.680;2022-11-14T21:58:59;99828.31;;;17.34;53.96
25638;BME280;13496;51.040;13.680;2022-11-14T22:04:32;99830.94;;;17.34;54.15
25638;BME280;13496;51.040;13.680;2022-11-14T22:09:52;99826.03;;;17.31;54.23
25638;BME280;13496;51.040;13.680;2022-11-14T22:15:12;99826.03;;;17.31;53.94
25638;BME280;13496;51.040;13.680;2022-11-14T22:20:33;99828.66;;;17.31;54.05
25638;BME280;13496;51.040;13.680;2022-11-14T22:25:57;99826.88;;;17.32;54.28
25638;BME280;13496;51.040;13.680;2022-11-14T22:31:22;99820.00;;;17.31;54.21
25638;BME280;13496;51.040;13.680;2022-11-14T22:36:43;99812.94;;;17.31;54.18
25638;BME280;13496;51.040;13.680;2022-11-14T22:42:03;99812.31;;;17.29;54.39
25638;BME280;13496;51.040;13.680;2022-11-14T22:47:24;99812.31;;;17.29;54.30
25638;BME280;13496;51.040;13.680;2022-11-14T22:52:44;99811.31;;;17.30;54.01
25638;BME280;13496;51.040;13.680;2022-11-14T22:58:04;99821.19;;;17.28;54.21
25638;BME280;13496;51.040;13.680;2022-11-14T23:03:25;99814.28;;;17.27;54.40
25638;BME280;13496;51.040;13.680;2022-11-14T23:08:46;99807.41;;;17.26;54.28
25638;BME280;13496;51.040;13.680;2022-11-14T23:14:07;99810.38;;;17.23;54.42
25638;BME280;13496;51.040;13.680;2022-11-14T23:19:30;99807.41;;;17.26;54.10
25638;BME280;13496;51.040;13.680;2022-11-14T23:24:50;99814.63;;;17.24;54.21
25638;BME280;13496;51.040;13.680;2022-11-14T23:30:11;99812.00;;;17.24;54.20
25638;BME280;13496;51.040;13.680;2022-11-14T23:35:31;99803.88;;;17.19;54.47
25638;BME280;13496;51.040;13.680;2022-11-14T23:40:52;99804.69;;;17.20;54.39
25638;BME280;13496;51.040;13.680;2022-11-14T23:46:13;99808.13;;;17.20;54.30
25638;BME280;13496;51.040;13.680;2022-11-14T23:51:34;99807.31;;;17.20;54.25
25638;BME280;13496;51.040;13.680;2022-11-14T23:56:54;99803.25;;;17.17;54.53
